Time;durP1;ratioP1;P1;durP2;ratioP2;P2;SDS_P1;SDS_P2;PMS_P1;PMS_P2;Temp;Humidity;BMP_temperature;BMP_pressure;BME280_temperature;BME280_humidity;BME280_pressure;Samples;Min_cycle;Max_cycle;Signal;HPM_P1;HPM_P2
2022/05/24 00:00:06;;;;;;;;;7.67;5.33;;;;;16.37;100.00;100076.31;5052036;28;45725;-78
2022/05/24 00:02:32;;;;;;;;;4.00;2.33;;;;;16.33;100.00;100072.41;5051473;28;45793;-78
2022/05/24 00:04:57;;;;;;;;;2.67;2.67;;;;;16.32;100.00;100062.44;5051761;28;45557;-76
2022/05/24 00:07:23;;;;;;;;;3.33;1.67;;;;;16.23;100.00;100056.56;5053148;28;45830;-77
2022/05/24 00:09:48;;;;;;;;;2.33;1.00;;;;;16.21;100.00;100067.88;5053231;28;45765;-78
2022/05/24 00:12:16;;;;;;;;;2.00;2.00;;;;;16.11;100.00;100078.00;5053224;28;45386;-80
2022/05/24 00:17:26;;;;;;;;;4.00;2.67;;;;;15.89;100.00;100081.69;5051896;28;45840;-77
2022/05/24 00:19:57;;;;;;;;;3.00;3.00;;;;;15.79;100.00;100087.09;5043982;28;45692;-76
2022/05/24 00:22:23;;;;;;;;;5.33;3.00;;;;;15.69;100.00;100096.91;5051605;28;45608;-76
2022/05/24 00:24:49;;;;;;;;;2.33;2.33;;;;;15.61;100.00;100105.66;5052895;28;45696;-79
2022/05/24 00:27:14;;;;;;;;;3.33;2.33;;;;;15.41;100.00;100091.63;5053382;28;46524;-81
2022/05/24 00:29:40;;;;;;;;;4.00;4.00;;;;;15.51;100.00;100120.19;5053237;28;45749;-79
2022/05/24 00:32:06;;;;;;;;;3.67;3.67;;;;;15.50;100.00;100126.00;5044730;28;45537;-76
2022/05/24 00:34:32;;;;;;;;;1.67;1.00;;;;;15.40;100.00;100110.09;5052136;28;45706;-76
2022/05/24 00:36:58;;;;;;;;;2.33;2.00;;;;;15.22;100.00;100086.38;5050740;28;48081;-80
2022/05/24 00:39:23;;;;;;;;;2.00;1.33;;;;;15.38;100.00;100103.19;5053837;28;45716;-77
2022/05/24 00:42:12;;;;;;;;;1.33;1.33;;;;;15.29;100.00;100095.31;5056348;28;45419;-79
2022/05/24 00:44:48;;;;;;;;;3.00;1.67;;;;;15.35;100.00;100099.81;5057010;28;47366;-80
2022/05/24 00:47:29;;;;;;;;;2.67;2.67;;;;;15.34;100.00;100089.03;5052074;28;45784;-79
2022/05/24 00:49:59;;;;;;;;;2.00;2.00;;;;;15.16;100.00;100062.56;5055256;28;45453;-81
2022/05/24 00:52:33;;;;;;;;;3.67;2.33;;;;;15.27;100.00;100086.47;5054755;28;45466;-77
2022/05/24 00:55:02;;;;;;;;;1.67;1.67;;;;;15.15;100.00;100086.59;5052677;28;47484;-80
2022/05/24 00:57:42;;;;;;;;;2.00;2.00;;;;;15.19;100.00;100086.91;5057939;28;46166;-80
2022/05/24 01:00:15;;;;;;;;;4.00;3.00;;;;;15.13;100.00;100090.69;5053609;28;45536;-77
2022/05/24 01:02:43;;;;;;;;;2.00;2.00;;;;;15.13;100.00;100088.75;5051467;28;45868;-80
2022/05/24 01:05:12;;;;;;;;;2.67;2.00;;;;;15.11;100.00;100079.91;5051947;28;47160;-79
2022/05/24 01:07:38;;;;;;;;;2.00;2.00;;;;;15.10;100.00;100080.16;5050976;28;48367;-79
2022/05/24 01:10:08;;;;;;;;;2.00;2.00;;;;;15.06;100.00;100081.75;5042332;28;45721;-78
2022/05/24 01:12:39;;;;;;;;;1.33;1.33;;;;;14.95;100.00;100078.84;5045818;28;45866;-77
2022/05/24 01:15:07;;;;;;;;;3.00;3.00;;;;;14.92;100.00;100084.88;5050631;28;45649;-77
2022/05/24 01:17:36;;;;;;;;;4.33;3.33;;;;;14.87;100.00;100073.78;5051816;28;46312;-77
2022/05/24 01:20:03;;;;;;;;;2.00;2.00;;;;;15.01;100.00;100093.56;5052608;28;45844;-76
2022/05/24 01:22:58;;;;;;;;;3.00;3.00;;;;;15.00;100.00;100098.25;5052209;28;45828;-80
2022/05/24 01:25:40;;;;;;;;;4.67;4.67;;;;;15.02;100.00;100095.25;5040298;28;45816;-79
2022/05/24 01:28:18;;;;;;;;;2.67;2.00;;;;;15.00;100.00;100097.44;5047640;28;48354;-79
2022/05/24 01:30:47;;;;;;;;;1.00;1.00;;;;;15.03;100.00;100102.44;5050424;28;45494;-79
2022/05/24 01:36:10;;;;;;;;;1.33;1.33;;;;;15.06;100.00;100087.28;5004839;28;45985;-80
2022/05/24 01:38:36;;;;;;;;;3.00;2.00;;;;;14.97;100.00;100078.59;5043599;28;48132;-80
2022/05/24 01:41:03;;;;;;;;;1.00;1.00;;;;;14.95;100.00;100078.84;5047365;28;45565;-79
2022/05/24 01:43:29;;;;;;;;;2.00;2.00;;;;;15.02;100.00;100094.41;5051624;28;45802;-78
2022/05/24 01:46:03;;;;;;;;;3.00;2.67;;;;;15.02;100.00;100099.94;5051185;28;45398;-77
2022/05/24 01:48:59;;;;;;;;;0.00;0.00;;;;;14.96;100.00;100087.97;5051322;28;46213;-77
2022/05/24 01:51:31;;;;;;;;;4.00;2.33;;;;;14.94;100.00;100093.75;5062156;27;45755;-77
2022/05/24 01:54:01;;;;;;;;;4.00;1.67;;;;;15.05;100.00;100105.78;5055917;28;45757;-76
2022/05/24 01:56:41;;;;;;;;;3.67;2.00;;;;;14.95;100.00;100089.88;5047472;28;47110;-78
2022/05/24 01:59:13;;;;;;;;;4.00;2.00;;;;;15.02;100.00;100116.50;5052906;28;47410;-83
2022/05/24 02:01:52;;;;;;;;;1.00;1.00;;;;;14.96;100.00;100113.66;5055376;28;45414;-78
2022/05/24 02:04:19;;;;;;;;;3.33;2.00;;;;;14.99;100.00;100123.38;5051735;28;46998;-78
2022/05/24 02:06:44;;;;;;;;;1.00;1.00;;;;;14.98;100.00;100117.03;5051867;28;45648;-77
2022/05/24 02:09:11;;;;;;;;;1.67;1.67;;;;;14.86;100.00;100098.88;5051568;28;47277;-78
2022/05/24 02:11:37;;;;;;;;;3.33;2.33;;;;;14.94;100.00;100126.88;5050596;28;45571;-78
2022/05/24 02:14:10;;;;;;;;;2.00;1.00;;;;;14.94;100.00;100110.31;5052292;28;45698;-77
2022/05/24 02:16:43;;;;;;;;;0.00;0.00;;;;;14.94;100.00;100120.50;5051387;28;45930;-78
2022/05/24 02:19:11;;;;;;;;;3.33;1.00;;;;;14.94;100.00;100104.81;5051821;28;45452;-77
2022/05/24 02:21:40;;;;;;;;;1.00;1.00;;;;;14.86;100.00;100105.22;5051029;28;45594;-78
2022/05/24 02:24:18;;;;;;;;;2.00;1.00;;;;;14.88;100.00;100111.34;5052128;28;45575;-77
2022/05/24 02:26:43;;;;;;;;;0.00;0.00;;;;;14.74;100.00;100093.44;5051798;28;45735;-78
2022/05/24 02:29:09;;;;;;;;;2.00;1.00;;;;;14.89;100.00;100121.28;5049799;28;46638;-76
2022/05/24 02:31:35;;;;;;;;;0.00;0.00;;;;;14.83;100.00;100119.53;5051800;28;45366;-78
2022/05/24 02:34:01;;;;;;;;;1.00;1.00;;;;;14.79;100.00;100115.59;5051449;28;45857;-77
2022/05/24 02:36:26;;;;;;;;;1.00;1.00;;;;;14.77;100.00;100113.09;5051332;28;45886;-77
2022/05/24 02:38:52;;;;;;;;;2.00;2.00;;;;;14.70;100.00;100114.34;5051136;28;45924;-78
2022/05/24 02:41:31;;;;;;;;;1.67;1.00;;;;;14.59;100.00;100110.56;5051267;28;45575;-77
2022/05/24 02:44:15;;;;;;;;;2.67;1.00;;;;;14.68;100.00;100125.66;5049569;28;45692;-78
2022/05/24 02:46:43;;;;;;;;;1.00;1.00;;;;;14.58;100.00;100123.53;5050844;28;45839;-77
2022/05/24 02:49:08;;;;;;;;;3.67;1.00;;;;;14.52;100.00;100121.78;5050777;28;46446;-76
2022/05/24 02:51:37;;;;;;;;;3.00;1.67;;;;;14.44;100.00;100128.53;5042517;28;45912;-79
2022/05/24 02:54:03;;;;;;;;;1.00;1.00;;;;;14.43;100.00;100131.53;5051058;28;45552;-80
2022/05/24 02:56:28;;;;;;;;;2.00;2.00;;;;;14.39;100.00;100131.22;5052191;28;45607;-78
2022/05/24 02:58:54;;;;;;;;;3.00;1.00;;;;;14.37;100.00;100136.16;5052353;28;46698;-79
2022/05/24 03:01:26;;;;;;;;;2.00;2.00;;;;;14.34;100.00;100144.06;5050883;28;45818;-78
2022/05/24 03:03:53;;;;;;;;;1.00;0.00;;;;;14.29;100.00;100145.66;5047030;28;45822;-78
2022/05/24 03:06:20;;;;;;;;;3.00;1.00;;;;;14.26;100.00;100148.09;5054535;28;45473;-77
2022/05/24 03:14:14;;;;;;;;;2.67;1.33;;;;;14.27;100.00;100156.09;5047970;28;45823;-78
2022/05/24 03:14:17;;;;;;;;;4.33;3.00;;;;;14.30;100.00;100152.03;5054843;28;45724;-77
2022/05/24 03:16:53;;;;;;;;;1.00;1.00;;;;;14.25;100.00;100146.41;5054675;28;45879;-81
2022/05/24 03:19:19;;;;;;;;;1.33;0.00;;;;;14.33;100.00;100147.94;5046614;28;48300;-77
2022/05/24 03:21:46;;;;;;;;;0.00;0.00;;;;;14.33;100.00;100148.78;5055004;28;45821;-78
2022/05/24 03:24:12;;;;;;;;;1.33;1.33;;;;;14.35;100.00;100154.03;5053457;28;45583;-76
2022/05/24 03:26:38;;;;;;;;;2.00;2.00;;;;;14.33;100.00;100147.94;5049926;28;46096;-75
2022/05/24 03:29:05;;;;;;;;;0.67;0.67;;;;;14.38;100.00;100168.16;5053843;28;46295;-79
2022/05/24 03:31:31;;;;;;;;;2.00;2.00;;;;;14.26;100.00;100159.13;5051367;28;45542;-78
2022/05/24 03:33:57;;;;;;;;;1.00;1.00;;;;;14.35;100.00;100174.16;5051846;28;45469;-77
2022/05/24 03:36:23;;;;;;;;;1.00;1.00;;;;;14.37;100.00;100187.72;5062673;28;45500;-77
2022/05/24 03:38:48;;;;;;;;;1.00;1.00;;;;;14.32;100.00;100180.19;5053092;28;46176;-78
2022/05/24 03:41:14;;;;;;;;;1.00;1.00;;;;;14.33;100.00;100183.81;5051700;28;45711;-77
2022/05/24 03:43:40;;;;;;;;;1.00;1.00;;;;;14.08;100.00;100154.66;5039979;28;45650;-79
2022/05/24 03:46:09;;;;;;;;;2.00;1.00;;;;;14.19;100.00;100174.97;5064500;27;46238;-77
2022/05/24 03:48:35;;;;;;;;;3.00;1.00;;;;;14.07;100.00;100175.88;5054466;28;45588;-80
2022/05/24 03:51:00;;;;;;;;;1.00;1.00;;;;;14.09;100.00;100197.69;5053195;28;45759;-79
2022/05/24 03:53:26;;;;;;;;;0.67;0.67;;;;;14.01;100.00;100195.31;5052863;28;45421;-78
2022/05/24 03:55:52;;;;;;;;;0.33;0.33;;;;;13.92;100.00;100181.06;5054120;28;45373;-77
2022/05/24 03:58:21;;;;;;;;;1.33;1.33;;;;;14.02;100.00;100202.50;5051790;28;46936;-77
2022/05/24 04:00:47;;;;;;;;;2.00;2.00;;;;;14.01;100.00;100211.84;5053853;28;45523;-77
2022/05/24 04:03:14;;;;;;;;;1.33;1.00;;;;;13.99;100.00;100209.34;5054288;28;45531;-78
2022/05/24 04:05:41;;;;;;;;;3.00;1.67;;;;;13.95;100.00;100213.66;5052193;28;45576;-78
2022/05/24 04:08:07;;;;;;;;;2.00;1.00;;;;;13.98;100.00;100204.06;5042163;28;45419;-77
2022/05/24 04:10:35;;;;;;;;;2.33;2.00;;;;;13.88;100.00;100185.41;5040742;28;45825;-77
2022/05/24 04:13:01;;;;;;;;;0.67;0.67;;;;;13.94;100.00;100196.28;5044381;28;46592;-79
2022/05/24 04:15:27;;;;;;;;;3.00;0.00;;;;;14.00;100.00;100210.19;5041807;28;45679;-77
2022/05/24 04:17:53;;;;;;;;;1.00;1.00;;;;;14.00;100.00;100204.69;5045369;28;46091;-75
2022/05/24 04:20:21;;;;;;;;;0.00;0.00;;;;;14.10;100.00;100218.66;5047656;28;45950;-79
2022/05/24 04:22:47;;;;;;;;;1.33;1.33;;;;;14.17;100.00;100222.09;5051817;28;45692;-79
2022/05/24 04:25:14;;;;;;;;;1.00;1.00;;;;;14.35;100.00;100214.72;5044159;28;45522;-80
2022/05/24 04:27:41;;;;;;;;;1.00;1.00;;;;;14.53;100.00;100173.09;5067359;27;46255;-81
2022/05/24 04:30:08;;;;;;;;;2.00;1.00;;;;;14.91;100.00;100201.94;5043977;28;45889;-78
2022/05/24 04:32:34;;;;;;;;;3.00;1.00;;;;;14.94;100.00;100206.97;5050772;28;45600;-78
2022/05/24 04:35:00;;;;;;;;;3.00;3.00;;;;;14.93;100.00;100227.38;5055640;28;45478;-81
2022/05/24 04:37:25;;;;;;;;;2.00;1.00;;;;;14.70;100.00;100191.63;5044532;28;47793;-80
2022/05/24 04:39:51;;;;;;;;;3.33;3.00;;;;;14.88;100.00;100232.81;5055146;28;45578;-80
2022/05/24 04:42:19;;;;;;;;;6.67;4.00;;;;;14.79;100.00;100212.22;5060862;27;45811;-80
2022/05/24 04:44:56;;;;;;;;;3.00;2.00;;;;;14.93;100.00;100232.88;5045469;28;45934;-76
2022/05/24 04:47:24;;;;;;;;;0.33;0.33;;;;;14.96;100.00;100248.13;5044970;28;47775;-78
2022/05/24 04:49:55;;;;;;;;;1.00;1.00;;;;;14.98;100.00;100241.28;5045231;28;45498;-77
2022/05/24 04:52:26;;;;;;;;;1.00;1.00;;;;;14.95;100.00;100252.78;5046173;28;45450;-76
2022/05/24 04:54:54;;;;;;;;;0.67;0.00;;;;;15.25;100.00;100243.34;5046649;28;45550;-75
2022/05/24 04:57:21;;;;;;;;;2.00;1.00;;;;;16.16;100.00;100244.88;5050322;28;46996;-77
2022/05/24 04:59:47;;;;;;;;;0.67;0.67;;;;;16.99;100.00;100246.59;5044116;28;45650;-80
2022/05/24 05:02:19;;;;;;;;;0.67;0.67;;;;;18.09;100.00;100241.47;5056519;28;45526;-81
2022/05/24 05:04:46;;;;;;;;;0.00;0.00;;;;;19.05;100.00;100208.63;5056213;28;45910;-81
2022/05/24 05:07:11;;;;;;;;;0.33;0.33;;;;;19.91;100.00;100217.06;5067660;28;47040;-81
2022/05/24 05:09:40;;;;;;;;;0.00;0.00;;;;;20.63;100.00;100216.69;5061029;28;45735;-81
2022/05/24 05:12:07;;;;;;;;;0.00;0.00;;;;;21.49;100.00;100199.50;5063542;28;45756;-80
2022/05/24 05:14:34;;;;;;;;;1.00;1.00;;;;;22.69;100.00;100236.81;5063587;28;46642;-81
2022/05/24 05:16:59;;;;;;;;;2.00;1.00;;;;;23.58;100.00;100243.47;5054902;28;46991;-81
2022/05/24 05:19:25;;;;;;;;;0.00;0.00;;;;;24.29;100.00;100237.56;5061284;28;45403;-82
2022/05/24 05:21:51;;;;;;;;;0.00;0.00;;;;;25.28;100.00;100225.69;5053147;28;45637;-79
2022/05/24 05:24:16;;;;;;;;;0.00;0.00;;;;;26.52;100.00;100235.13;5053486;28;45757;-75
2022/05/24 05:26:42;;;;;;;;;2.00;0.00;;;;;26.87;100.00;100249.25;5038794;28;46241;-76
2022/05/24 05:29:08;;;;;;;;;0.00;0.00;;;;;27.73;93.54;100257.06;5054962;28;45939;-79
2022/05/24 05:31:33;;;;;;;;;1.00;1.00;;;;;28.54;87.50;100264.41;5054328;28;45418;-79
2022/05/24 05:34:03;;;;;;;;;0.00;0.00;;;;;29.39;81.99;100234.16;5054305;28;45395;-82
2022/05/24 05:36:31;;;;;;;;;0.00;0.00;;;;;29.97;76.69;100253.13;5059337;28;45415;-80
2022/05/24 05:38:58;;;;;;;;;1.25;0.00;;;;;30.06;75.01;100251.00;5051337;28;45854;-80
2022/05/24 05:41:34;;;;;;;;;1.00;0.00;;;;;29.83;74.72;100266.78;5051199;28;45694;-79
2022/05/24 05:44:06;;;;;;;;;0.00;0.00;;;;;30.06;73.72;100282.13;5057199;28;45528;-84
2022/05/24 05:46:32;;;;;;;;;0.00;0.00;;;;;30.72;70.27;100234.91;5054510;28;46240;-79
2022/05/24 05:48:57;;;;;;;;;0.00;0.00;;;;;31.04;68.04;100266.19;5056212;28;44834;-78
2022/05/24 05:51:23;;;;;;;;;0.00;0.00;;;;;31.46;67.10;100284.78;5053832;28;45524;-81
2022/05/24 05:53:52;;;;;;;;;0.00;0.00;;;;;31.36;64.89;100280.44;5051815;28;47119;-80
2022/05/24 05:56:21;;;;;;;;;0.00;0.00;;;;;31.47;65.42;100281.56;5053420;28;45344;-79
2022/05/24 05:58:56;;;;;;;;;0.50;0.50;;;;;30.91;65.03;100281.56;5046004;28;45630;-80
2022/05/24 06:01:29;;;;;;;;;0.00;0.00;;;;;31.12;65.10;100276.56;5041136;27;45940;-80
2022/05/24 06:03:56;;;;;;;;;2.00;0.50;;;;;31.67;61.50;100279.72;5041659;28;45754;-81
2022/05/24 06:06:25;;;;;;;;;0.00;0.00;;;;;31.68;60.50;100281.38;5046484;28;46406;-79
2022/05/24 06:08:51;;;;;;;;;0.25;0.25;;;;;31.78;60.18;100287.69;5050287;28;46023;-79
2022/05/24 06:11:19;;;;;;;;;0.00;0.00;;;;;31.93;60.31;100298.19;5050584;28;45897;-79
2022/05/24 06:13:44;;;;;;;;;0.00;0.00;;;;;32.32;57.45;100303.25;5048612;28;46183;-81
2022/05/24 06:16:10;;;;;;;;;0.00;0.00;;;;;32.34;56.74;100290.34;5053860;28;46155;-79
2022/05/24 06:18:37;;;;;;;;;2.00;0.00;;;;;32.58;55.77;100304.66;5040368;28;45906;-79
2022/05/24 06:21:05;;;;;;;;;0.00;0.00;;;;;32.97;55.50;100316.94;5051764;28;45526;-79
2022/05/24 06:23:31;;;;;;;;;0.00;0.00;;;;;32.48;54.72;100318.25;5039586;28;45988;-77
2022/05/24 06:25:57;;;;;;;;;0.50;0.50;;;;;31.99;55.19;100313.78;5059697;27;47472;-79
2022/05/24 06:28:22;;;;;;;;;0.00;0.00;;;;;31.42;58.21;100318.66;5062023;27;45493;-77
2022/05/24 06:30:48;;;;;;;;;0.00;0.00;;;;;31.85;56.82;100327.56;5047702;28;45691;-81
2022/05/24 06:33:13;;;;;;;;;1.50;0.00;;;;;31.93;56.86;100329.41;5044929;28;45600;-77
2022/05/24 06:35:40;;;;;;;;;0.50;0.00;;;;;31.76;57.37;100307.91;5048107;28;47661;-78
2022/05/24 06:38:06;;;;;;;;;0.25;0.00;;;;;31.60;57.81;100322.03;5044137;28;45681;-79
2022/05/24 06:40:32;;;;;;;;;0.00;0.00;;;;;32.46;56.31;100323.47;5044684;28;45974;-81
2022/05/24 06:42:58;;;;;;;;;0.00;0.00;;;;;32.83;52.93;100317.47;5046665;28;45932;-78
2022/05/24 06:45:34;;;;;;;;;0.00;0.00;;;;;32.63;55.16;100333.59;5050623;28;45785;-79
2022/05/24 06:47:59;;;;;;;;;0.00;0.00;;;;;32.76;52.96;100320.13;5048036;28;45758;-79
2022/05/24 06:50:26;;;;;;;;;0.00;0.00;;;;;33.53;51.97;100332.75;5049606;28;45580;-78
2022/05/24 06:52:56;;;;;;;;;0.00;0.00;;;;;33.91;47.79;100325.38;5047704;28;45485;-77
2022/05/24 06:55:23;;;;;;;;;0.00;0.00;;;;;33.88;50.75;100342.34;5050264;28;48275;-77
2022/05/24 06:57:49;;;;;;;;;0.00;0.00;;;;;33.58;49.16;100340.13;5051191;28;45740;-78
2022/05/24 07:03:08;;;;;;;;;1.00;1.00;;;;;32.97;53.57;100344.56;5047394;28;45775;-81
2022/05/24 07:05:34;;;;;;;;;0.25;0.25;;;;;33.42;51.05;100338.22;5051825;28;45458;-75
2022/05/24 07:08:01;;;;;;;;;1.00;1.00;;;;;33.40;50.25;100348.31;5049171;28;45590;-78
2022/05/24 07:10:31;;;;;;;;;0.00;0.00;;;;;33.41;50.71;100350.78;5047124;28;45470;-78
2022/05/24 07:13:09;;;;;;;;;1.00;0.75;;;;;32.46;51.15;100360.38;5032368;28;45577;-77
2022/05/24 07:15:35;;;;;;;;;0.00;0.00;;;;;32.91;51.03;100363.91;5030811;28;45483;-74
2022/05/24 07:18:01;;;;;;;;;0.25;0.00;;;;;33.87;48.04;100370.00;5030776;28;45417;-76
2022/05/24 07:20:29;;;;;;;;;0.50;0.50;;;;;34.89;45.63;100370.53;5030612;28;45703;-74
2022/05/24 07:23:04;;;;;;;;;0.00;0.00;;;;;34.95;44.91;100371.84;5046210;28;47280;-74
2022/05/24 07:25:30;;;;;;;;;1.25;1.25;;;;;35.50;41.99;100368.50;5043704;28;45706;-75
2022/05/24 07:27:55;;;;;;;;;1.00;1.00;;;;;35.14;43.49;100362.34;5048118;28;45440;-76
2022/05/24 07:30:21;;;;;;;;;1.00;1.00;;;;;34.54;43.03;100363.06;5040174;28;45718;-78
2022/05/24 07:32:47;;;;;;;;;0.00;0.00;;;;;34.00;45.53;100364.13;5051788;28;45483;-77
2022/05/24 07:35:13;;;;;;;;;1.00;0.00;;;;;34.01;47.56;100368.63;5051654;28;46382;-78
2022/05/24 07:37:39;;;;;;;;;2.00;0.25;;;;;33.92;45.82;100366.84;5046145;28;45385;-78
2022/05/24 07:48:12;;;;;;;;;0.00;0.00;;;;;34.55;44.47;100369.56;5054267;28;45929;-79
2022/05/24 07:50:39;;;;;;;;;0.25;0.25;;;;;34.37;44.30;100372.94;5050704;28;45706;-79
2022/05/24 07:53:05;;;;;;;;;0.00;0.00;;;;;35.14;44.43;100355.81;5053707;28;45748;-80
2022/05/24 07:55:30;;;;;;;;;0.00;0.00;;;;;34.54;42.46;100357.38;5057791;28;46333;-78
2022/05/24 07:57:57;;;;;;;;;0.00;0.00;;;;;33.78;45.29;100360.88;5056212;28;45485;-81
2022/05/24 08:00:23;;;;;;;;;2.75;0.00;;;;;32.91;48.33;100367.53;5056509;28;45799;-78
2022/05/24 08:02:50;;;;;;;;;1.00;1.00;;;;;31.92;50.23;100360.97;5055208;28;45816;-78
2022/05/24 08:05:16;;;;;;;;;0.00;0.00;;;;;31.98;53.02;100379.38;5054606;28;45413;-78
2022/05/24 08:07:42;;;;;;;;;0.00;0.00;;;;;32.52;50.17;100366.59;5054723;28;45844;-76
2022/05/24 08:10:08;;;;;;;;;1.00;0.00;;;;;31.79;49.61;100377.25;5053151;28;45406;-76
2022/05/24 08:12:34;;;;;;;;;0.00;0.00;;;;;31.34;51.33;100384.84;5051825;28;45809;-75
2022/05/24 08:14:59;;;;;;;;;0.25;0.25;;;;;31.36;55.76;100371.13;5052748;28;46734;-73
2022/05/24 08:17:25;;;;;;;;;0.75;0.00;;;;;31.55;55.24;100376.16;5051430;28;45490;-75
2022/05/24 08:19:52;;;;;;;;;1.50;0.00;;;;;31.01;59.87;100365.22;5053364;28;45707;-72
2022/05/24 08:22:19;;;;;;;;;0.00;0.00;;;;;30.69;58.20;100376.31;5043423;28;45383;-73
2022/05/24 08:24:45;;;;;;;;;0.00;0.00;;;;;30.88;59.75;100385.03;5051580;28;45829;-75
2022/05/24 08:27:14;;;;;;;;;0.00;0.00;;;;;31.40;59.22;100380.56;5049847;28;45797;-73
2022/05/24 08:29:40;;;;;;;;;0.50;0.00;;;;;31.09;58.40;100367.09;5052261;28;45699;-74
2022/05/24 08:32:06;;;;;;;;;1.25;0.00;;;;;31.84;55.79;100357.97;5052286;28;45454;-74
2022/05/24 08:34:32;;;;;;;;;0.00;0.00;;;;;33.46;49.92;100377.28;5038291;28;46382;-74
2022/05/24 08:36:58;;;;;;;;;0.75;0.00;;;;;34.96;45.22;100379.19;5050127;28;46196;-74
2022/05/24 08:39:24;;;;;;;;;0.00;0.00;;;;;36.40;40.33;100375.19;5051624;28;45716;-73
2022/05/24 08:42:03;;;;;;;;;0.50;0.50;;;;;37.65;33.69;100375.53;5049778;28;45518;-74
2022/05/24 08:50:14;;;;;;;;;0.00;0.00;;;;;37.84;32.03;100371.53;5054728;28;45798;-79
2022/05/24 08:52:50;;;;;;;;;0.00;0.00;;;;;36.97;33.25;100368.25;5054437;28;45917;-78
2022/05/24 08:55:17;;;;;;;;;0.50;0.50;;;;;35.78;34.84;100378.66;5054642;28;46302;-80
2022/05/24 08:57:49;;;;;;;;;0.00;0.00;;;;;35.51;36.03;100377.88;5058059;28;45846;-79
2022/05/24 09:00:39;;;;;;;;;1.50;0.75;;;;;36.44;34.10;100375.22;5051870;28;45637;-75
2022/05/24 09:03:07;;;;;;;;;0.00;0.00;;;;;37.40;31.11;100374.22;5041330;28;47606;-74
2022/05/24 09:05:45;;;;;;;;;0.00;0.00;;;;;37.10;30.41;100368.75;5051514;28;45445;-74
2022/05/24 09:08:25;;;;;;;;;0.00;0.00;;;;;37.02;30.73;100378.50;5051158;28;45789;-74
2022/05/24 09:11:32;;;;;;;;;1.25;0.00;;;;;37.12;31.59;100371.22;5052341;28;45527;-75
2022/05/24 09:14:12;;;;;;;;;1.75;0.75;;;;;38.01;29.23;100379.31;5026248;28;45659;-74
2022/05/24 09:17:07;;;;;;;;;0.00;0.00;;;;;38.18;28.81;100382.59;5050958;28;46319;-73
2022/05/24 09:19:35;;;;;;;;;0.00;0.00;;;;;38.59;27.43;100373.63;5051063;28;45551;-80
2022/05/24 09:22:04;;;;;;;;;0.00;0.00;;;;;38.22;28.01;100381.44;5047462;28;45778;-79
2022/05/24 09:24:42;;;;;;;;;0.00;0.00;;;;;37.39;29.34;100377.50;5053955;28;45735;-79
2022/05/24 09:27:20;;;;;;;;;0.00;0.00;;;;;36.52;30.08;100387.53;5053189;28;45722;-81
2022/05/24 09:29:56;;;;;;;;;0.00;0.00;;;;;35.45;32.01;100379.44;5050215;28;45756;-80
2022/05/24 09:32:30;;;;;;;;;1.00;1.00;;;;;34.40;35.20;100379.91;5053934;28;45366;-80
2022/05/24 09:35:11;;;;;;;;;2.50;0.00;;;;;33.70;36.09;100394.03;5052532;28;47221;-80
2022/05/24 09:37:38;;;;;;;;;0.00;0.00;;;;;32.69;37.66;100373.94;5051367;28;46275;-77
2022/05/24 09:40:21;;;;;;;;;0.00;0.00;;;;;32.35;40.62;100387.66;5054125;28;45776;-78
2022/05/24 09:42:46;;;;;;;;;0.00;0.00;;;;;32.69;39.35;100376.75;5052454;28;45984;-80
2022/05/24 09:45:16;;;;;;;;;0.00;0.00;;;;;32.25;38.11;100393.88;5055391;28;45545;-79
2022/05/24 09:47:41;;;;;;;;;0.00;0.00;;;;;32.30;41.06;100385.91;5054326;28;45803;-77
2022/05/24 09:50:36;;;;;;;;;0.00;0.00;;;;;31.78;43.22;100390.59;5050022;28;45806;-80
2022/05/24 09:53:02;;;;;;;;;1.00;0.00;;;;;31.06;45.08;100396.94;5053480;28;45572;-74
2022/05/24 09:55:38;;;;;;;;;0.25;0.25;;;;;30.36;47.58;100406.38;5050932;28;45567;-74
2022/05/24 09:58:15;;;;;;;;;0.00;0.00;;;;;29.61;51.33;100404.47;5051694;28;46008;-79
2022/05/24 10:01:12;;;;;;;;;0.00;0.00;;;;;29.04;54.72;100406.75;5045988;28;45744;-78
2022/05/24 10:03:37;;;;;;;;;1.50;0.00;;;;;29.61;54.05;100404.47;5038935;28;45779;-73
2022/05/24 10:06:22;;;;;;;;;0.00;0.00;;;;;31.17;49.21;100408.63;5051298;28;45699;-76
2022/05/24 10:08:58;;;;;;;;;0.00;0.00;;;;;32.87;41.64;100399.91;5049975;28;46446;-76
2022/05/24 10:11:40;;;;;;;;;0.50;0.50;;;;;33.16;38.71;100381.50;5051662;28;45461;-75
2022/05/24 10:14:32;;;;;;;;;1.00;0.00;;;;;32.69;42.71;100403.13;5053290;28;45545;-80
2022/05/24 10:17:06;;;;;;;;;0.00;0.00;;;;;32.00;43.76;100409.00;5052406;28;45842;-81
2022/05/24 10:19:47;;;;;;;;;0.00;0.00;;;;;31.87;43.05;100413.09;5054215;28;46288;-78
2022/05/24 10:22:12;;;;;;;;;0.00;0.00;;;;;31.25;45.00;100407.66;5053299;28;45823;-80
2022/05/24 10:24:56;;;;;;;;;0.50;0.00;;;;;30.59;48.35;100405.94;5055147;28;45425;-81
2022/05/24 10:27:24;;;;;;;;;0.00;0.00;;;;;31.73;46.05;100407.88;5052093;28;45395;-81
2022/05/24 10:30:10;;;;;;;;;0.00;0.00;;;;;33.06;41.83;100417.00;5051991;28;47157;-82
2022/05/24 10:38:47;;;;;;;;;0.00;0.00;;;;;36.88;29.96;100400.06;5051736;28;45472;-75
2022/05/24 10:41:23;;;;;;;;;0.00;0.00;;;;;36.89;29.21;100401.69;5052155;28;45948;-79
2022/05/24 10:44:10;;;;;;;;;0.75;0.00;;;;;37.40;28.53;100393.44;5051899;28;46066;-74
2022/05/24 10:46:46;;;;;;;;;0.00;0.00;;;;;37.04;29.00;100399.75;5046273;28;45850;-74
2022/05/24 10:49:27;;;;;;;;;0.00;0.00;;;;;37.22;26.43;100407.63;5039686;28;45552;-79
2022/05/24 10:52:34;;;;;;;;;0.00;0.00;;;;;36.87;26.19;100389.03;5058224;28;46457;-83
2022/05/24 10:55:05;;;;;;;;;1.00;0.00;;;;;36.27;26.14;100402.41;5048787;28;45821;-82
2022/05/24 10:57:43;;;;;;;;;0.00;0.00;;;;;35.17;28.44;100412.06;5058651;28;45364;-83
2022/05/24 11:00:12;;;;;;;;;0.75;0.00;;;;;34.05;30.68;100393.09;5045358;28;45983;-81
2022/05/24 11:03:09;;;;;;;;;0.25;0.25;;;;;33.22;32.74;100416.16;5051296;28;45483;-81
2022/05/24 11:05:46;;;;;;;;;0.00;0.00;;;;;32.11;35.82;100420.72;5053827;28;45561;-81
2022/05/24 11:08:49;;;;;;;;;2.25;0.00;;;;;30.85;39.68;100430.22;5053356;28;45375;-81
2022/05/24 11:11:43;;;;;;;;;0.00;0.00;;;;;29.98;42.70;100415.94;5049055;28;45787;-78
2022/05/24 11:14:21;;;;;;;;;0.00;0.00;;;;;29.94;44.54;100417.81;5047343;28;45416;-81
2022/05/24 11:16:53;;;;;;;;;3.75;0.75;;;;;29.50;45.83;100386.28;5052751;28;45789;-78
2022/05/24 11:19:35;;;;;;;;;0.25;0.00;;;;;29.46;46.69;100422.06;5049517;28;45374;-78
2022/05/24 11:22:07;;;;;;;;;0.00;0.00;;;;;29.28;45.97;100425.00;5049414;28;45559;-79
2022/05/24 11:25:03;;;;;;;;;0.00;0.00;;;;;29.12;45.59;100416.31;5051535;28;45743;-80
2022/05/24 11:27:34;;;;;;;;;0.75;0.00;;;;;29.05;43.28;100416.84;5047806;28;45768;-80
2022/05/24 11:30:35;;;;;;;;;0.00;0.00;;;;;29.06;42.00;100415.69;5037700;28;45453;-79
2022/05/24 11:33:06;;;;;;;;;1.00;0.00;;;;;29.48;43.50;100408.44;5039228;28;45876;-79
2022/05/24 11:35:36;;;;;;;;;0.00;0.00;;;;;29.56;44.02;100410.34;5046929;28;46014;-78
2022/05/24 11:38:20;;;;;;;;;0.00;0.00;;;;;29.18;42.04;100417.75;5038490;28;45965;-79
2022/05/24 11:40:54;;;;;;;;;0.00;0.00;;;;;28.92;42.47;100420.75;5040561;28;45954;-79
2022/05/24 11:43:35;;;;;;;;;0.00;0.00;;;;;28.53;44.94;100423.59;5042064;28;45447;-78
2022/05/24 11:46:38;;;;;;;;;0.00;0.00;;;;;28.54;44.59;100415.94;5038981;28;46521;-79
2022/05/24 11:49:24;;;;;;;;;0.00;0.00;;;;;28.25;45.37;100375.28;5042157;28;45360;-79
2022/05/24 11:51:51;;;;;;;;;0.00;0.00;;;;;28.39;46.80;100422.16;5037855;28;45437;-79
2022/05/24 11:54:23;;;;;;;;;0.00;0.00;;;;;28.26;47.84;100422.03;5047821;28;45600;-78
2022/05/24 11:56:53;;;;;;;;;0.00;0.00;;;;;28.23;49.86;100427.53;5046284;28;45842;-79
2022/05/24 11:59:47;;;;;;;;;0.00;0.00;;;;;28.12;49.60;100419.41;5040536;28;46592;-79
2022/05/24 12:02:19;;;;;;;;;0.75;0.00;;;;;27.88;50.08;100427.59;5049036;28;45984;-81
2022/05/24 12:08:41;;;;;;;;;2.00;1.00;;;;;27.84;52.41;100421.78;5046068;28;45668;-82
2022/05/24 12:11:15;;;;;;;;;0.00;0.00;;;;;27.79;53.02;100425.59;5049168;28;45607;-78
2022/05/24 12:13:46;;;;;;;;;0.00;0.00;;;;;27.62;51.60;100423.63;5054049;28;45881;-79